Terminal Aerodrome Forecast
Issued by NWS Mt. Holly, NJ

Home | Current Version | Previous Version | Text Only | Print | Product List | Glossary On
Versions: 1 2 3 4 5 6 7 8 9 10 11 12 13 14 15 16 17 18 19 20 21 22
801
FTUS41 KPHI 162353 CCA
TAFILG
TAF COR
KILG 162353Z 1700/1724 22004KT P6SM BKN035 OVC080
      TEMPO 1702/1706 6SM -SHRA OVC025
     FM170600 VRB03KT P6SM OVC025
      TEMPO 1706/1710 5SM -SHRA BR OVC015
     FM171000 12003KT 2SM -RA BR OVC009
     FM171400 14005KT 1SM -RA BR OVC005
     FM172100 16005KT 2SM -DZ BR OVC004=

USA.gov is the U.S. government's official web portal to all federal, state and local government web resources and services.